Blue Oak Ranch Reserve, California Weather observations

Data are for 10 minute period ending at time listed.
 Day   Time   Solar   Ave.   Ave.  Ave.  Vector  Max.   Baro.   Total    
  of    of     Rad.   Air    Rel.  Wind   Wind   Wind  Press.  Precip.   
Year   Day            Temp.  Hum.  Speed  Dir.   Gust                    
2026   (PST)  Kw/m2    F      %     mph   deg.    mph    mb.     in.     
-------------------------------------------------------------------------
 245    4:00   0.00   47.2    84    0.0     0     0.0   950.5    0.00 
 245    4:10   0.00   47.2    84    0.3   299     1.2   950.6    0.00 
 245    4:20   0.00   47.6    83    0.5   299     1.5   950.6    0.00 
 245    4:30   0.00   47.6    83    0.3   278     1.8   950.6    0.00 
 245    4:40   0.00   47.6    83    0.1   275     0.7   950.7    0.00 
 245    4:50   0.00   47.9    82    0.7    14     2.2   950.7    0.00 
 245    5:00   0.00   47.9    81    0.7    12     2.9   950.7    0.00 
 245    5:10   0.00   47.9    82    0.4   301     1.8   950.8    0.00 
 245    5:20   0.00   48.1    82    0.3   296     1.0   950.9    0.00 
 245    5:30   0.00   48.1    81    0.0   296     0.5   950.8    0.00 
 245    5:40   0.00   48.1    82    0.0     0     0.0   950.8    0.00 
 245    5:50   0.01   48.1    81    0.0     0     0.0   950.9    0.00 
 245    6:00   0.01   47.9    83    0.2    50     1.7   951.0    0.00 
 245    6:10   0.02   48.1    82    0.6    47     1.9   951.1    0.00 
 245    6:20   0.03   48.2    83    1.3   285     1.7   951.2    0.00 
 245    6:30   0.06   48.6    83    0.3   291     1.3   951.2    0.00 
 245    6:40   0.14   49.9    83    0.0   291     0.7   951.3    0.00 
 245    6:50   0.18   53.7    77    0.0   240     0.4   951.4    0.00 
 245    7:00   0.19   57.1    69    1.0    46     2.2   951.3    0.00 
 245    7:10   0.21   59.4    65    0.3   151     1.8   951.3    0.00 
 245    7:20   0.17   60.7    61    0.4   148     1.2   951.4    0.00 
 245    7:30   0.19   62.1    58    0.1   134     1.2   951.5    0.00 
 245    7:40   0.35   63.7    53    0.7   319     2.0   951.7    0.00 
 245    7:50   0.40   65.1    52    1.9   254     5.9   951.8    0.00 
 245    8:00   0.45   66.0    51    3.8   257     7.5   951.9    0.00 
 245    8:10   0.47   66.3    51    4.8   266     8.5   951.9    0.00 
 245    8:20   0.42   65.2    54    4.3   252     9.1   951.8    0.00 
 245    8:30   0.58   64.6    55    4.4   239     9.6   951.9    0.00 
 245    8:40   0.69   64.4    56    3.8   223     9.1   951.9    0.00 
 245    8:50   0.45   65.9    54    4.0   260     8.3   951.9    0.00 
 245    9:00   0.31   64.5    56    5.1   291     9.1   952.0    0.00 
 245    9:10   0.38   65.1    55    3.3   268     8.0   952.0    0.00 
 245    9:20   0.42   65.2    55    3.5   241     7.5   951.9    0.00 
 245    9:30   0.37   64.8    56    5.4   266     9.4   952.0    0.00 
 245    9:40   0.38   65.2    56    4.3   270     8.8   952.1    0.00 
 245    9:50   0.70   65.3    55    3.0   208     5.8   952.1    0.00 
 245   10:00   0.56   66.3    53    3.5   239     8.4   952.1    0.00 
 245   10:10   0.72   66.2    54    4.7   266    10.7   952.1    0.00 
 245   10:20   0.85   68.1    50    5.6   270    11.5   952.1    0.00 
 245   10:30   0.90   68.9    49    4.0   252    10.3   952.2    0.00 
 245   10:40   1.00   67.9    51    5.2   225    10.2   952.2    0.00 
 245   10:50   0.98   69.0    48    6.3   282    12.8   952.3    0.00 
 245   11:00   0.66   69.3    47    5.1   241    10.2   952.3    0.00 
 245   11:10   0.77   69.3    47    5.3   247    11.3   952.2    0.00 
 245   11:20   0.34   67.9    50    3.0   236     8.1   952.2    0.00 
 245   11:30   0.54   68.5    48    5.7   258    12.4   952.0    0.00 
 245   11:40   1.00   69.8    46    6.3   268    10.7   952.1    0.00 
 245   11:50   0.57   69.9    47    6.2   259    10.4   952.2    0.00 
 245   12:00   0.58   69.6    48    6.3   251    11.8   952.2    0.00 
 245   12:10   0.74   68.9    49    6.3   227    11.3   952.1    0.00 
 245   12:20   0.78   70.4    48    8.7   265    16.3   952.0    0.00 
 245   12:30   0.32   68.7    51    6.5   263    13.0   952.1    0.00 
 245   12:40   0.66   69.2    49    4.4   272    10.2   952.0    0.00 
 245   12:50   0.77   71.3    45    7.3   282    12.9   952.0    0.00 
 245   13:00   0.42   69.7    47    4.8   268    10.7   952.0    0.00 
 245   13:10   1.00   70.0    45    5.5   226    11.4   951.8    0.00 
 245   13:20   0.39   71.6    42    6.2   258    13.0   951.8    0.00 
 245   13:30   0.67   69.8    46    3.9   192    13.2   951.7    0.00 
 245   13:40   0.94   71.2    44    7.5   251    14.2   951.6    0.00 
 245   13:50   0.70   72.2    42    6.4   242    11.7   951.5    0.00 
 245   14:00   0.84   71.5    45    6.3   242    14.8   951.4    0.00 
 245   14:10   0.56   70.8    48    6.1   258    12.1   951.4    0.00 
 245   14:20   0.84   71.6    45    4.3   248     9.9   951.3    0.00 
 245   14:30   0.78   71.8    46    5.5   242    12.6   951.3    0.00 
 245   14:40   0.73   72.7    44    6.2   268    13.2   951.1    0.00 
 245   14:50   0.70   72.6    44    4.6   271    10.6   951.0    0.00 
 245   15:00   0.69   73.5    44    6.1   254    14.2   950.9    0.00 
 245   15:10   0.65   72.1    46    4.7   237    10.5   950.7    0.00 
 245   15:20   0.64   73.0    47    6.3   276    11.8   950.6    0.00 
 245   15:30   0.60   72.3    47    5.5   262    11.4   950.5    0.00 
 245   15:40   0.56   72.9    47    6.0   280    11.8   950.6    0.00 
 245   15:50   0.53   72.8    48    5.3   266    11.3   950.5    0.00 
 245   16:00   0.50   72.4    48    7.9   258    12.5   950.5    0.00 
 245   16:10   0.46   71.4    49    6.3   260     9.9   950.4    0.00 
 245   16:20   0.43   72.1    49    8.0   275    13.7   950.4    0.00 
 245   16:30   0.39   70.8    51    8.3   281    13.1   950.4    0.00 
 245   16:40   0.35   70.3    52    8.7   276    14.0   950.5    0.00 
 245   16:50   0.32   68.9    55    7.1   298    11.9   950.5    0.00 
 245   17:00   0.28   68.6    55    7.3   286    11.3   950.5    0.00 
 245   17:10   0.25   68.2    55    7.0   293    10.4   950.6    0.00 
 245   17:20   0.19   67.7    56    7.2   285    11.6   950.6    0.00 
 245   17:30   0.18   67.2    56    6.9   287     9.9   950.5    0.00 
 245   17:40   0.15   66.7    56    6.6   291    10.3   950.5    0.00 
 245   17:50   0.12   65.7    58    5.7   284     9.1   950.5    0.00 
 245   18:00   0.09   64.7    59    7.5   278    10.7   950.4    0.00 
 245   18:10   0.06   63.6    59    5.8   286     8.9   950.3    0.00 
 245   18:20   0.02   62.7    58    5.4   285     8.0   950.3    0.00 
 245   18:30   0.01   61.9    59    5.1   294     7.3   950.3    0.00 
 245   18:40   0.01   61.3    60    3.4   304     6.1   950.3    0.00 
 245   18:50   0.00   60.5    61    2.0   303     3.4   950.4    0.00 
 245   19:00   0.00   59.6    62    1.9   302     3.1   950.3    0.00 
 245   19:10   0.00   58.7    63    1.0   290     2.2   950.4    0.00 
 245   19:20   0.00   57.7    65    1.0   295     2.3   950.4    0.00 
 245   19:30   0.00   56.9    66    1.1   315     4.0   950.5    0.00 
 245   19:40   0.00   56.0    68    0.3    62     1.7   950.6    0.00 
 245   19:50   0.00   55.3    68    0.4    15     1.7   950.7    0.00 
 245   20:00   0.00   54.7    68    0.2     6     2.0   950.8    0.00 
 245   20:10   0.00   54.0    68    1.4   327     3.2   950.8    0.00 
 245   20:20   0.00   53.5    68    0.1   342     0.7   950.9    0.00 
 245   20:30   0.00   53.1    66    0.3    43     1.2   951.0    0.00 
 245   20:40   0.00   52.6    66    0.8    48     2.2   951.0    0.00 
 245   20:50   0.00   52.4    69    0.2   292     2.0   951.1    0.00 
 245   21:00   0.00   51.8    70    1.2   280     3.1   951.1    0.00 
 245   21:10   0.00   51.2    70    1.1    53     2.8   951.1    0.00 
 245   21:20   0.00   50.9    70    0.4    28     1.5   951.1    0.00 
 245   21:30   0.00   50.6    72    0.6   272     2.2   951.1    0.00 
 245   21:40   0.00   50.5    71    1.7   289     4.2   951.0    0.00 
 245   21:50   0.00   50.1    72    0.8    57     2.0   951.0    0.00 
 245   22:00   0.00   49.9    73    0.5   130     1.8   951.0    0.00 
 245   22:10   0.00   49.8    73    0.8    49     2.3   950.9    0.00 
 245   22:20   0.00   49.7    73    0.3   355     1.7   950.8    0.00 
 245   22:30   0.00   49.4    74    1.4   288     2.5   950.8    0.00 
 245   22:40   0.00   49.2    74    0.9    36     2.4   950.8    0.00 
 245   22:50   0.00   49.3    75    1.6   308     2.6   950.8    0.00 
 245   23:00   0.00   49.3    75    1.9   300     3.6   950.8    0.00 
 245   23:10   0.00   49.0    75    0.5    68     1.3   950.8    0.00 
 245   23:20   0.00   49.1    76    0.2   257     2.1   950.7    0.00 
 245   23:30   0.00   49.4    75    0.9   308     2.5   950.7    0.00 
 245   23:40   0.00   49.1    76    0.5   301     2.5   950.7    0.00 
 245   23:50   0.00   48.9    76    0.4    10     1.7   950.7    0.00 
 246    0:00   0.00   49.0    75    1.6     9     3.5   950.7    0.00 
 246    0:10   0.00   49.3    75    1.7    46     3.2   950.7    0.00 
 246    0:20   0.00   50.0    73    2.4    20     3.5   950.8    0.00 
 246    0:30   0.00   50.1    73    1.4   314     3.4   950.8    0.00 
 246    0:40   0.00   50.0    74    1.1   300     2.7   950.8    0.00 
 246    0:50   0.00   50.6    72    1.5    14     3.4   950.7    0.00 
 246    1:00   0.00   51.0    72    3.1    23     5.3   950.7    0.00 
 246    1:10   0.00   51.5    71    2.8    15     4.2   950.6    0.00 
 246    1:20   0.00   51.2    71    1.5    24     4.3   950.6    0.00 
 246    1:30   0.00   50.4    72    2.5    10     4.8   950.5    0.00 
 246    1:40   0.00   50.4    72    2.3   356     4.6   950.3    0.00 
 246    1:50   0.00   49.6    75    1.6   278     3.3   950.3    0.00 
 246    2:00   0.00   49.1    76    1.7   277     3.7   950.2    0.00 
 246    2:10   0.00   48.9    76    1.6   305     3.6   950.2    0.00 
 246    2:20   0.00   48.6    76    1.0   317     2.8   950.1    0.00 
 246    2:30   0.00   48.4    77    1.5   280     3.4   950.1    0.00 
 246    2:40   0.00   48.1    78    0.6   251     1.8   950.2    0.00 
 246    2:50   0.00   47.6    77    0.1   265     1.1   950.2    0.00 
 246    3:00   0.00   47.1    79    0.4   280     1.3   950.1    0.00 
 246    3:10   0.00   47.0    79    0.8   284     2.2   950.0    0.00 
 246    3:20   0.00   47.0    79    1.8   282     3.1   949.9    0.00 
 246    3:30   0.00   47.4    78    0.5   288     1.8   949.8    0.00 
 246    3:40   0.00   47.2    78    1.0    84     1.9   949.7    0.00 
 246    3:50   0.00   47.1    78    0.0    85     0.8   949.6    0.00 

Return to Blue Oak Ranch Reserve graphs page.


Western Regional Climate Center,wrcc@dri.edu